Etusivu
METAR-TAF:

METAR-TAF

Lentoasemat :

Salak

Maroua, Kamerun

Leveyspiiri: 10-27N, Pituuspiiri: 014-15E, korkeus merenpinnasta: 423 m

Tämänhetkinen sää

Tämä raportti tehtiin 2 tuntia ja 21 minuuttia sitten, kello 17.00 UTC
Tuuli 5 kn koillisesta
Lämpötila 28°C
Kosteus 14%
Ilmanpaine 1014 hPa
Näkyvyys 10 km tai enemmän
ei pilviä alle 1500 m:ssä eikä cumulonimbus-pilviä

METAR: FKKL 241700Z 04005KT CAVOK 28/M02 Q1014

Aika: 20:21 (19:21 UTC)

Sääennuste

Tämä raportti tehtiin 14 tuntia ja 21 minuuttia sitten, kello 05.00 UTC
Ennuste voimassa 24. päivästä klo 06 UTC - 24. päivään klo 18 UTC
Tuuli 8 kn eri suunnista
Näkyvyys: 8000 m

TAF: FKKL 240500Z 2406/2418 VRB08KT 8000 NSC

Säähavainnot ja -ennusteet yli 4000 lentoasemalta (METAR- ja TAF-raportit).

Käytössä olevat sääasemat on merkitty karttaan keltaisilla ja punaisilla pisteillä.

Aseta hiiri pisteen päälle nähdäksesi sääaseman nimen.

Klikkaa sitten nähdäksesi säähavainnot ja -ennusteet.

Kartan vaihtaminen: klikkaa mustalla rastilla varustettuja vihreitä pisteitä, niin voit zoomata sisään; viivalla varustettua vihreää pistettä, niin voit zoomata ulos tai vihreitä nuolia, niin pääset viereisille kartoille.


METAR-TAF: